sensor_id;sensor_type;location;lat;lon;timestamp;P1;durP1;ratioP1;P2;durP2;ratioP2
83747;SDS011;73737;52.364;17.120;2024-02-21T00:02:27;25.80;;;8.30;;
83747;SDS011;73737;52.364;17.120;2024-02-21T00:04:55;25.70;;;6.90;;
83747;SDS011;73737;52.364;17.120;2024-02-21T00:07:24;17.50;;;6.30;;
83747;SDS011;73737;52.364;17.120;2024-02-21T00:09:53;20.80;;;6.90;;
83747;SDS011;73737;52.364;17.120;2024-02-21T00:12:21;15.40;;;5.40;;
83747;SDS011;73737;52.364;17.120;2024-02-21T00:14:50;20.30;;;6.80;;
83747;SDS011;73737;52.364;17.120;2024-02-21T00:17:18;23.90;;;7.00;;
83747;SDS011;73737;52.364;17.120;2024-02-21T00:19:47;19.40;;;6.90;;
83747;SDS011;73737;52.364;17.120;2024-02-21T00:22:16;19.60;;;6.90;;
83747;SDS011;73737;52.364;17.120;2024-02-21T00:24:44;21.70;;;6.50;;
83747;SDS011;73737;52.364;17.120;2024-02-21T00:27:13;18.50;;;6.50;;
83747;SDS011;73737;52.364;17.120;2024-02-21T00:29:41;17.60;;;6.20;;
83747;SDS011;73737;52.364;17.120;2024-02-21T00:32:10;19.90;;;6.30;;
83747;SDS011;73737;52.364;17.120;2024-02-21T00:34:38;24.50;;;6.80;;
83747;SDS011;73737;52.364;17.120;2024-02-21T00:37:07;15.30;;;6.10;;
83747;SDS011;73737;52.364;17.120;2024-02-21T00:39:36;26.50;;;6.00;;
83747;SDS011;73737;52.364;17.120;2024-02-21T00:42:05;20.20;;;5.90;;
83747;SDS011;73737;52.364;17.120;2024-02-21T00:44:35;22.90;;;7.50;;
83747;SDS011;73737;52.364;17.120;2024-02-21T00:47:03;24.70;;;6.60;;
83747;SDS011;73737;52.364;17.120;2024-02-21T00:49:32;20.60;;;6.30;;
83747;SDS011;73737;52.364;17.120;2024-02-21T00:52:01;21.40;;;6.60;;
83747;SDS011;73737;52.364;17.120;2024-02-21T00:54:29;20.70;;;5.80;;
83747;SDS011;73737;52.364;17.120;2024-02-21T00:56:58;21.50;;;5.60;;
83747;SDS011;73737;52.364;17.120;2024-02-21T00:59:26;23.20;;;6.90;;
83747;SDS011;73737;52.364;17.120;2024-02-21T01:01:55;23.30;;;5.90;;
83747;SDS011;73737;52.364;17.120;2024-02-21T01:04:23;24.60;;;5.60;;
83747;SDS011;73737;52.364;17.120;2024-02-21T01:06:52;17.90;;;5.80;;
83747;SDS011;73737;52.364;17.120;2024-02-21T01:09:21;26.30;;;6.90;;
83747;SDS011;73737;52.364;17.120;2024-02-21T01:11:49;18.90;;;5.70;;
83747;SDS011;73737;52.364;17.120;2024-02-21T01:14:18;16.90;;;6.20;;
83747;SDS011;73737;52.364;17.120;2024-02-21T01:16:47;21.20;;;6.20;;
83747;SDS011;73737;52.364;17.120;2024-02-21T01:19:15;20.40;;;5.80;;
83747;SDS011;73737;52.364;17.120;2024-02-21T01:21:44;21.30;;;6.80;;
83747;SDS011;73737;52.364;17.120;2024-02-21T01:24:13;24.00;;;6.50;;
83747;SDS011;73737;52.364;17.120;2024-02-21T01:26:42;26.10;;;7.20;;
83747;SDS011;73737;52.364;17.120;2024-02-21T01:29:10;23.10;;;7.20;;
83747;SDS011;73737;52.364;17.120;2024-02-21T01:31:39;23.10;;;7.50;;
83747;SDS011;73737;52.364;17.120;2024-02-21T01:34:08;24.70;;;6.60;;
83747;SDS011;73737;52.364;17.120;2024-02-21T01:36:36;19.10;;;6.50;;
83747;SDS011;73737;52.364;17.120;2024-02-21T01:39:05;19.70;;;6.70;;
83747;SDS011;73737;52.364;17.120;2024-02-21T01:41:33;17.70;;;6.60;;
83747;SDS011;73737;52.364;17.120;2024-02-21T01:44:02;20.20;;;6.70;;
83747;SDS011;73737;52.364;17.120;2024-02-21T01:46:31;20.70;;;6.60;;
83747;SDS011;73737;52.364;17.120;2024-02-21T01:48:59;23.40;;;7.50;;
83747;SDS011;73737;52.364;17.120;2024-02-21T01:51:29;28.40;;;7.50;;
83747;SDS011;73737;52.364;17.120;2024-02-21T01:53:57;24.70;;;7.60;;
83747;SDS011;73737;52.364;17.120;2024-02-21T01:56:26;22.90;;;7.50;;
83747;SDS011;73737;52.364;17.120;2024-02-21T01:58:55;20.40;;;6.70;;
83747;SDS011;73737;52.364;17.120;2024-02-21T02:01:24;26.90;;;8.10;;
83747;SDS011;73737;52.364;17.120;2024-02-21T02:03:53;21.10;;;7.90;;
83747;SDS011;73737;52.364;17.120;2024-02-21T02:06:22;26.30;;;8.40;;
83747;SDS011;73737;52.364;17.120;2024-02-21T02:08:51;19.30;;;7.00;;
83747;SDS011;73737;52.364;17.120;2024-02-21T02:11:21;24.00;;;8.60;;
83747;SDS011;73737;52.364;17.120;2024-02-21T02:13:49;21.70;;;7.40;;
83747;SDS011;73737;52.364;17.120;2024-02-21T02:16:18;20.90;;;7.10;;
83747;SDS011;73737;52.364;17.120;2024-02-21T02:18:47;25.40;;;7.20;;
83747;SDS011;73737;52.364;17.120;2024-02-21T02:21:22;23.10;;;8.00;;
83747;SDS011;73737;52.364;17.120;2024-02-21T02:23:54;23.50;;;7.60;;
83747;SDS011;73737;52.364;17.120;2024-02-21T02:26:23;25.20;;;7.30;;
83747;SDS011;73737;52.364;17.120;2024-02-21T02:28:51;24.40;;;6.90;;
83747;SDS011;73737;52.364;17.120;2024-02-21T02:31:20;17.80;;;6.70;;
83747;SDS011;73737;52.364;17.120;2024-02-21T02:33:48;25.00;;;8.70;;
83747;SDS011;73737;52.364;17.120;2024-02-21T02:36:18;21.10;;;7.80;;
83747;SDS011;73737;52.364;17.120;2024-02-21T02:38:47;23.40;;;7.00;;
83747;SDS011;73737;52.364;17.120;2024-02-21T02:41:15;16.20;;;7.10;;
83747;SDS011;73737;52.364;17.120;2024-02-21T02:43:44;27.10;;;8.30;;
83747;SDS011;73737;52.364;17.120;2024-02-21T02:46:12;24.60;;;7.80;;
83747;SDS011;73737;52.364;17.120;2024-02-21T02:48:41;24.20;;;8.20;;
83747;SDS011;73737;52.364;17.120;2024-02-21T02:51:09;30.30;;;8.90;;
83747;SDS011;73737;52.364;17.120;2024-02-21T02:53:38;47.90;;;12.30;;
83747;SDS011;73737;52.364;17.120;2024-02-21T02:56:07;39.10;;;12.50;;
83747;SDS011;73737;52.364;17.120;2024-02-21T02:58:35;39.00;;;11.20;;
83747;SDS011;73737;52.364;17.120;2024-02-21T03:01:04;35.90;;;13.40;;
83747;SDS011;73737;52.364;17.120;2024-02-21T03:03:35;30.40;;;12.40;;
83747;SDS011;73737;52.364;17.120;2024-02-21T03:06:04;36.10;;;9.90;;
83747;SDS011;73737;52.364;17.120;2024-02-21T03:08:32;31.10;;;10.40;;
83747;SDS011;73737;52.364;17.120;2024-02-21T03:11:02;30.10;;;9.40;;
83747;SDS011;73737;52.364;17.120;2024-02-21T03:13:30;38.40;;;13.70;;
83747;SDS011;73737;52.364;17.120;2024-02-21T03:15:59;35.50;;;12.60;;
83747;SDS011;73737;52.364;17.120;2024-02-21T03:18:27;40.60;;;12.90;;
83747;SDS011;73737;52.364;17.120;2024-02-21T03:20:56;27.70;;;10.90;;
83747;SDS011;73737;52.364;17.120;2024-02-21T03:23:25;28.10;;;9.40;;
83747;SDS011;73737;52.364;17.120;2024-02-21T03:25:53;18.30;;;6.90;;
83747;SDS011;73737;52.364;17.120;2024-02-21T03:28:22;19.10;;;7.80;;
83747;SDS011;73737;52.364;17.120;2024-02-21T03:30:50;15.30;;;6.40;;
83747;SDS011;73737;52.364;17.120;2024-02-21T03:33:18;25.30;;;6.40;;
83747;SDS011;73737;52.364;17.120;2024-02-21T03:35:49;21.50;;;6.60;;
83747;SDS011;73737;52.364;17.120;2024-02-21T03:38:18;18.50;;;6.90;;
83747;SDS011;73737;52.364;17.120;2024-02-21T03:40:47;21.40;;;7.30;;
83747;SDS011;73737;52.364;17.120;2024-02-21T03:43:15;24.30;;;6.80;;
83747;SDS011;73737;52.364;17.120;2024-02-21T03:45:44;19.10;;;7.90;;
83747;SDS011;73737;52.364;17.120;2024-02-21T03:48:12;19.00;;;6.80;;
83747;SDS011;73737;52.364;17.120;2024-02-21T03:50:41;24.40;;;7.30;;
83747;SDS011;73737;52.364;17.120;2024-02-21T03:53:09;25.00;;;7.50;;
83747;SDS011;73737;52.364;17.120;2024-02-21T03:55:38;22.00;;;7.20;;
83747;SDS011;73737;52.364;17.120;2024-02-21T03:58:06;18.50;;;6.60;;
83747;SDS011;73737;52.364;17.120;2024-02-21T04:00:35;20.40;;;6.80;;
83747;SDS011;73737;52.364;17.120;2024-02-21T04:03:03;20.00;;;7.80;;
83747;SDS011;73737;52.364;17.120;2024-02-21T04:05:32;17.40;;;7.30;;
83747;SDS011;73737;52.364;17.120;2024-02-21T04:08:03;24.90;;;7.00;;
83747;SDS011;73737;52.364;17.120;2024-02-21T04:10:33;20.80;;;7.00;;
83747;SDS011;73737;52.364;17.120;2024-02-21T04:13:01;18.30;;;6.90;;
83747;SDS011;73737;52.364;17.120;2024-02-21T04:15:30;19.90;;;7.20;;
83747;SDS011;73737;52.364;17.120;2024-02-21T04:17:58;21.10;;;6.90;;
83747;SDS011;73737;52.364;17.120;2024-02-21T04:20:27;20.00;;;6.70;;
83747;SDS011;73737;52.364;17.120;2024-02-21T04:22:56;23.10;;;7.30;;
83747;SDS011;73737;52.364;17.120;2024-02-21T04:25:25;13.80;;;7.70;;
83747;SDS011;73737;52.364;17.120;2024-02-21T04:27:54;19.70;;;6.10;;
83747;SDS011;73737;52.364;17.120;2024-02-21T04:30:23;23.80;;;6.90;;
83747;SDS011;73737;52.364;17.120;2024-02-21T04:32:52;20.10;;;6.30;;
83747;SDS011;73737;52.364;17.120;2024-02-21T04:35:20;18.90;;;6.60;;
83747;SDS011;73737;52.364;17.120;2024-02-21T04:37:49;15.90;;;6.70;;
83747;SDS011;73737;52.364;17.120;2024-02-21T04:40:18;22.60;;;6.60;;
83747;SDS011;73737;52.364;17.120;2024-02-21T04:42:46;22.90;;;6.90;;
83747;SDS011;73737;52.364;17.120;2024-02-21T04:45:15;17.50;;;6.70;;
83747;SDS011;73737;52.364;17.120;2024-02-21T04:47:43;27.10;;;6.50;;
83747;SDS011;73737;52.364;17.120;2024-02-21T04:50:12;12.80;;;5.60;;
83747;SDS011;73737;52.364;17.120;2024-02-21T04:52:41;16.40;;;6.00;;
83747;SDS011;73737;52.364;17.120;2024-02-21T04:55:11;15.30;;;6.30;;
83747;SDS011;73737;52.364;17.120;2024-02-21T04:57:39;16.30;;;6.20;;
83747;SDS011;73737;52.364;17.120;2024-02-21T05:00:08;22.30;;;7.70;;
83747;SDS011;73737;52.364;17.120;2024-02-21T05:02:37;17.70;;;7.00;;
83747;SDS011;73737;52.364;17.120;2024-02-21T05:05:08;18.30;;;7.10;;
83747;SDS011;73737;52.364;17.120;2024-02-21T05:07:37;21.10;;;6.70;;
83747;SDS011;73737;52.364;17.120;2024-02-21T05:10:06;22.50;;;7.20;;
83747;SDS011;73737;52.364;17.120;2024-02-21T05:12:35;18.50;;;7.10;;
83747;SDS011;73737;52.364;17.120;2024-02-21T05:15:04;21.40;;;6.30;;
83747;SDS011;73737;52.364;17.120;2024-02-21T05:17:33;20.50;;;6.90;;
83747;SDS011;73737;52.364;17.120;2024-02-21T05:20:02;18.90;;;5.90;;
83747;SDS011;73737;52.364;17.120;2024-02-21T05:22:31;18.40;;;6.70;;
83747;SDS011;73737;52.364;17.120;2024-02-21T05:25:00;17.80;;;6.90;;
83747;SDS011;73737;52.364;17.120;2024-02-21T05:27:28;16.50;;;7.30;;
83747;SDS011;73737;52.364;17.120;2024-02-21T05:29:57;22.90;;;6.80;;
83747;SDS011;73737;52.364;17.120;2024-02-21T05:32:26;18.00;;;7.30;;
83747;SDS011;73737;52.364;17.120;2024-02-21T05:34:55;19.00;;;6.90;;
83747;SDS011;73737;52.364;17.120;2024-02-21T05:37:24;17.60;;;6.40;;
83747;SDS011;73737;52.364;17.120;2024-02-21T05:39:52;20.00;;;7.10;;
83747;SDS011;73737;52.364;17.120;2024-02-21T05:42:21;17.40;;;7.00;;
83747;SDS011;73737;52.364;17.120;2024-02-21T05:44:49;20.80;;;7.70;;
83747;SDS011;73737;52.364;17.120;2024-02-21T05:47:18;26.00;;;7.20;;
83747;SDS011;73737;52.364;17.120;2024-02-21T05:49:48;22.70;;;6.50;;
83747;SDS011;73737;52.364;17.120;2024-02-21T05:52:17;17.00;;;7.50;;
83747;SDS011;73737;52.364;17.120;2024-02-21T05:54:45;18.60;;;7.00;;
83747;SDS011;73737;52.364;17.120;2024-02-21T05:57:14;26.00;;;9.20;;
83747;SDS011;73737;52.364;17.120;2024-02-21T05:59:42;20.30;;;7.20;;
83747;SDS011;73737;52.364;17.120;2024-02-21T06:02:12;19.60;;;7.10;;
83747;SDS011;73737;52.364;17.120;2024-02-21T06:04:41;20.10;;;7.40;;
83747;SDS011;73737;52.364;17.120;2024-02-21T06:07:10;18.70;;;7.30;;
83747;SDS011;73737;52.364;17.120;2024-02-21T06:09:39;21.10;;;6.90;;
83747;SDS011;73737;52.364;17.120;2024-02-21T06:12:07;17.40;;;7.00;;
83747;SDS011;73737;52.364;17.120;2024-02-21T06:14:36;20.40;;;7.80;;
83747;SDS011;73737;52.364;17.120;2024-02-21T06:17:05;21.80;;;7.30;;
83747;SDS011;73737;52.364;17.120;2024-02-21T06:19:34;22.50;;;6.90;;
83747;SDS011;73737;52.364;17.120;2024-02-21T06:22:02;20.90;;;6.80;;
83747;SDS011;73737;52.364;17.120;2024-02-21T06:24:35;20.10;;;6.30;;
83747;SDS011;73737;52.364;17.120;2024-02-21T06:27:04;22.10;;;6.90;;
83747;SDS011;73737;52.364;17.120;2024-02-21T06:29:36;20.80;;;7.10;;
83747;SDS011;73737;52.364;17.120;2024-02-21T06:32:05;23.50;;;7.90;;
83747;SDS011;73737;52.364;17.120;2024-02-21T06:34:34;20.70;;;7.20;;
83747;SDS011;73737;52.364;17.120;2024-02-21T06:37:02;22.40;;;7.80;;
83747;SDS011;73737;52.364;17.120;2024-02-21T06:39:31;22.90;;;8.90;;
83747;SDS011;73737;52.364;17.120;2024-02-21T06:42:00;20.60;;;7.70;;
83747;SDS011;73737;52.364;17.120;2024-02-21T06:44:28;23.70;;;7.60;;
83747;SDS011;73737;52.364;17.120;2024-02-21T06:46:57;22.70;;;8.10;;
83747;SDS011;73737;52.364;17.120;2024-02-21T06:49:26;20.40;;;6.80;;
83747;SDS011;73737;52.364;17.120;2024-02-21T06:51:55;20.60;;;6.90;;
83747;SDS011;73737;52.364;17.120;2024-02-21T06:54:24;20.40;;;7.40;;
83747;SDS011;73737;52.364;17.120;2024-02-21T06:56:53;18.30;;;6.30;;
83747;SDS011;73737;52.364;17.120;2024-02-21T06:59:21;18.30;;;6.90;;
83747;SDS011;73737;52.364;17.120;2024-02-21T07:01:53;21.60;;;7.10;;
83747;SDS011;73737;52.364;17.120;2024-02-21T07:04:25;20.50;;;7.10;;
83747;SDS011;73737;52.364;17.120;2024-02-21T07:06:55;18.70;;;6.60;;
83747;SDS011;73737;52.364;17.120;2024-02-21T07:09:23;19.00;;;6.70;;
83747;SDS011;73737;52.364;17.120;2024-02-21T07:11:51;23.90;;;7.80;;
83747;SDS011;73737;52.364;17.120;2024-02-21T07:14:20;19.50;;;7.30;;
83747;SDS011;73737;52.364;17.120;2024-02-21T07:16:48;15.40;;;7.10;;
83747;SDS011;73737;52.364;17.120;2024-02-21T07:19:17;23.80;;;7.70;;
83747;SDS011;73737;52.364;17.120;2024-02-21T07:21:46;21.80;;;9.50;;
83747;SDS011;73737;52.364;17.120;2024-02-21T07:24:16;21.60;;;6.60;;
83747;SDS011;73737;52.364;17.120;2024-02-21T07:26:45;25.00;;;7.10;;
83747;SDS011;73737;52.364;17.120;2024-02-21T07:29:13;22.60;;;6.30;;
83747;SDS011;73737;52.364;17.120;2024-02-21T07:31:42;15.50;;;7.00;;
83747;SDS011;73737;52.364;17.120;2024-02-21T07:34:11;14.20;;;6.10;;
83747;SDS011;73737;52.364;17.120;2024-02-21T07:36:40;26.80;;;7.00;;
83747;SDS011;73737;52.364;17.120;2024-02-21T07:39:10;17.40;;;6.90;;
83747;SDS011;73737;52.364;17.120;2024-02-21T07:41:39;17.70;;;7.10;;
83747;SDS011;73737;52.364;17.120;2024-02-21T07:44:09;16.00;;;6.50;;
83747;SDS011;73737;52.364;17.120;2024-02-21T07:46:38;19.50;;;6.40;;
83747;SDS011;73737;52.364;17.120;2024-02-21T07:49:06;20.50;;;7.00;;
83747;SDS011;73737;52.364;17.120;2024-02-21T07:51:35;18.00;;;7.10;;
83747;SDS011;73737;52.364;17.120;2024-02-21T07:54:04;15.20;;;6.80;;
83747;SDS011;73737;52.364;17.120;2024-02-21T07:56:33;17.30;;;6.40;;
83747;SDS011;73737;52.364;17.120;2024-02-21T07:59:02;21.20;;;7.30;;
83747;SDS011;73737;52.364;17.120;2024-02-21T08:01:31;18.00;;;7.00;;
83747;SDS011;73737;52.364;17.120;2024-02-21T08:03:59;19.30;;;7.50;;
83747;SDS011;73737;52.364;17.120;2024-02-21T08:06:28;18.40;;;6.20;;
83747;SDS011;73737;52.364;17.120;2024-02-21T08:08:57;21.90;;;7.20;;
83747;SDS011;73737;52.364;17.120;2024-02-21T08:11:26;18.70;;;6.50;;
83747;SDS011;73737;52.364;17.120;2024-02-21T08:13:54;21.20;;;7.70;;
83747;SDS011;73737;52.364;17.120;2024-02-21T08:16:23;19.80;;;7.80;;
83747;SDS011;73737;52.364;17.120;2024-02-21T08:18:51;18.90;;;8.70;;
83747;SDS011;73737;52.364;17.120;2024-02-21T08:21:20;37.10;;;16.10;;
83747;SDS011;73737;52.364;17.120;2024-02-21T08:23:49;21.40;;;10.40;;
83747;SDS011;73737;52.364;17.120;2024-02-21T08:26:19;32.80;;;14.40;;
83747;SDS011;73737;52.364;17.120;2024-02-21T08:28:48;16.60;;;6.30;;
83747;SDS011;73737;52.364;17.120;2024-02-21T08:31:19;16.00;;;5.50;;
83747;SDS011;73737;52.364;17.120;2024-02-21T08:33:48;16.00;;;6.00;;
83747;SDS011;73737;52.364;17.120;2024-02-21T08:36:17;13.40;;;6.90;;
83747;SDS011;73737;52.364;17.120;2024-02-21T08:38:47;17.50;;;6.30;;
83747;SDS011;73737;52.364;17.120;2024-02-21T08:41:21;16.10;;;6.70;;
83747;SDS011;73737;52.364;17.120;2024-02-21T08:43:52;14.80;;;6.20;;
83747;SDS011;73737;52.364;17.120;2024-02-21T08:46:23;12.80;;;5.80;;
83747;SDS011;73737;52.364;17.120;2024-02-21T08:48:55;14.50;;;7.00;;
83747;SDS011;73737;52.364;17.120;2024-02-21T08:51:24;13.70;;;7.10;;
83747;SDS011;73737;52.364;17.120;2024-02-21T08:53:52;15.80;;;7.20;;
83747;SDS011;73737;52.364;17.120;2024-02-21T08:56:22;18.70;;;7.20;;
83747;SDS011;73737;52.364;17.120;2024-02-21T08:58:51;16.40;;;7.10;;
83747;SDS011;73737;52.364;17.120;2024-02-21T09:01:19;16.40;;;7.10;;
83747;SDS011;73737;52.364;17.120;2024-02-21T09:03:49;19.90;;;7.70;;
83747;SDS011;73737;52.364;17.120;2024-02-21T09:06:22;17.30;;;6.50;;
83747;SDS011;73737;52.364;17.120;2024-02-21T09:08:50;19.20;;;6.50;;
83747;SDS011;73737;52.364;17.120;2024-02-21T09:11:19;16.60;;;7.10;;
83747;SDS011;73737;52.364;17.120;2024-02-21T09:13:48;20.30;;;8.30;;
83747;SDS011;73737;52.364;17.120;2024-02-21T09:16:16;18.70;;;8.10;;
83747;SDS011;73737;52.364;17.120;2024-02-21T09:18:45;17.70;;;6.50;;
83747;SDS011;73737;52.364;17.120;2024-02-21T09:21:14;24.60;;;7.70;;
83747;SDS011;73737;52.364;17.120;2024-02-21T09:23:43;17.00;;;6.90;;
83747;SDS011;73737;52.364;17.120;2024-02-21T09:26:13;16.60;;;8.00;;
83747;SDS011;73737;52.364;17.120;2024-02-21T09:28:44;14.20;;;8.30;;
83747;SDS011;73737;52.364;17.120;2024-02-21T09:31:13;16.50;;;7.50;;
83747;SDS011;73737;52.364;17.120;2024-02-21T09:33:43;18.20;;;7.30;;
83747;SDS011;73737;52.364;17.120;2024-02-21T09:36:12;19.90;;;6.70;;
83747;SDS011;73737;52.364;17.120;2024-02-21T09:38:40;20.20;;;8.00;;
83747;SDS011;73737;52.364;17.120;2024-02-21T09:41:16;20.40;;;8.20;;
83747;SDS011;73737;52.364;17.120;2024-02-21T09:43:46;23.40;;;9.00;;
83747;SDS011;73737;52.364;17.120;2024-02-21T09:46:16;17.40;;;8.60;;
83747;SDS011;73737;52.364;17.120;2024-02-21T09:48:52;13.50;;;7.00;;
83747;SDS011;73737;52.364;17.120;2024-02-21T09:51:22;17.40;;;7.50;;
83747;SDS011;73737;52.364;17.120;2024-02-21T09:53:52;18.90;;;8.60;;
83747;SDS011;73737;52.364;17.120;2024-02-21T09:56:21;15.80;;;7.40;;
83747;SDS011;73737;52.364;17.120;2024-02-21T09:58:50;17.90;;;8.00;;
83747;SDS011;73737;52.364;17.120;2024-02-21T10:01:18;22.10;;;8.30;;
83747;SDS011;73737;52.364;17.120;2024-02-21T10:03:47;20.80;;;8.00;;
83747;SDS011;73737;52.364;17.120;2024-02-21T10:06:16;17.40;;;7.20;;
83747;SDS011;73737;52.364;17.120;2024-02-21T10:08:53;17.40;;;8.00;;
83747;SDS011;73737;52.364;17.120;2024-02-21T10:11:22;14.30;;;6.90;;
83747;SDS011;73737;52.364;17.120;2024-02-21T10:14:05;22.00;;;9.00;;
83747;SDS011;73737;52.364;17.120;2024-02-21T10:16:34;20.40;;;8.00;;
83747;SDS011;73737;52.364;17.120;2024-02-21T10:19:03;19.70;;;7.70;;
83747;SDS011;73737;52.364;17.120;2024-02-21T10:21:31;20.40;;;8.40;;
83747;SDS011;73737;52.364;17.120;2024-02-21T10:24:00;17.70;;;7.80;;
83747;SDS011;73737;52.364;17.120;2024-02-21T10:26:28;18.70;;;7.80;;
83747;SDS011;73737;52.364;17.120;2024-02-21T10:28:57;19.30;;;7.60;;
83747;SDS011;73737;52.364;17.120;2024-02-21T10:31:27;19.30;;;7.40;;
83747;SDS011;73737;52.364;17.120;2024-02-21T10:33:59;23.70;;;8.50;;
83747;SDS011;73737;52.364;17.120;2024-02-21T10:36:31;21.80;;;8.60;;
83747;SDS011;73737;52.364;17.120;2024-02-21T10:39:01;18.20;;;8.70;;
83747;SDS011;73737;52.364;17.120;2024-02-21T10:41:29;17.10;;;8.30;;
83747;SDS011;73737;52.364;17.120;2024-02-21T10:43:59;18.10;;;9.00;;
83747;SDS011;73737;52.364;17.120;2024-02-21T10:46:28;14.50;;;7.80;;
83747;SDS011;73737;52.364;17.120;2024-02-21T10:49:22;25.90;;;8.80;;
83747;SDS011;73737;52.364;17.120;2024-02-21T10:52:13;17.20;;;8.20;;
83747;SDS011;73737;52.364;17.120;2024-02-21T10:54:53;25.20;;;8.40;;
83747;SDS011;73737;52.364;17.120;2024-02-21T10:57:27;17.00;;;7.60;;
83747;SDS011;73737;52.364;17.120;2024-02-21T10:59:55;22.90;;;7.00;;
83747;SDS011;73737;52.364;17.120;2024-02-21T11:02:27;14.20;;;7.40;;
83747;SDS011;73737;52.364;17.120;2024-02-21T11:04:59;16.10;;;7.80;;
83747;SDS011;73737;52.364;17.120;2024-02-21T11:07:29;20.00;;;7.60;;
83747;SDS011;73737;52.364;17.120;2024-02-21T11:10:00;14.40;;;6.80;;
83747;SDS011;73737;52.364;17.120;2024-02-21T11:12:32;15.90;;;7.60;;
83747;SDS011;73737;52.364;17.120;2024-02-21T11:15:04;20.40;;;7.50;;
83747;SDS011;73737;52.364;17.120;2024-02-21T11:17:34;15.30;;;7.80;;
83747;SDS011;73737;52.364;17.120;2024-02-21T11:20:15;16.00;;;8.20;;
83747;SDS011;73737;52.364;17.120;2024-02-21T11:22:43;13.60;;;6.80;;
83747;SDS011;73737;52.364;17.120;2024-02-21T11:25:12;11.70;;;7.00;;
83747;SDS011;73737;52.364;17.120;2024-02-21T11:27:46;15.00;;;7.90;;
83747;SDS011;73737;52.364;17.120;2024-02-21T11:30:15;13.10;;;7.30;;
83747;SDS011;73737;52.364;17.120;2024-02-21T11:32:46;21.50;;;7.90;;
83747;SDS011;73737;52.364;17.120;2024-02-21T11:35:21;15.70;;;8.70;;
83747;SDS011;73737;52.364;17.120;2024-02-21T11:37:50;15.90;;;8.00;;
83747;SDS011;73737;52.364;17.120;2024-02-21T11:40:18;14.70;;;7.60;;
83747;SDS011;73737;52.364;17.120;2024-02-21T11:42:47;13.60;;;7.20;;
83747;SDS011;73737;52.364;17.120;2024-02-21T11:45:15;16.10;;;8.10;;
83747;SDS011;73737;52.364;17.120;2024-02-21T11:47:46;13.10;;;7.20;;
83747;SDS011;73737;52.364;17.120;2024-02-21T11:50:15;19.40;;;7.80;;
83747;SDS011;73737;52.364;17.120;2024-02-21T11:52:43;18.60;;;8.80;;
83747;SDS011;73737;52.364;17.120;2024-02-21T11:55:13;17.30;;;9.10;;
83747;SDS011;73737;52.364;17.120;2024-02-21T11:57:42;17.60;;;8.00;;
83747;SDS011;73737;52.364;17.120;2024-02-21T12:00:20;18.90;;;8.60;;
83747;SDS011;73737;52.364;17.120;2024-02-21T12:02:50;24.30;;;9.50;;
83747;SDS011;73737;52.364;17.120;2024-02-21T12:05:19;15.60;;;8.60;;
83747;SDS011;73737;52.364;17.120;2024-02-21T12:07:48;20.20;;;8.70;;
83747;SDS011;73737;52.364;17.120;2024-02-21T12:10:17;19.90;;;9.60;;
83747;SDS011;73737;52.364;17.120;2024-02-21T12:12:45;21.20;;;9.00;;
83747;SDS011;73737;52.364;17.120;2024-02-21T12:15:14;20.20;;;8.90;;
83747;SDS011;73737;52.364;17.120;2024-02-21T12:17:43;18.80;;;9.50;;
83747;SDS011;73737;52.364;17.120;2024-02-21T12:20:15;24.70;;;9.50;;
83747;SDS011;73737;52.364;17.120;2024-02-21T12:22:44;15.70;;;8.30;;
83747;SDS011;73737;52.364;17.120;2024-02-21T12:25:16;21.70;;;9.20;;
83747;SDS011;73737;52.364;17.120;2024-02-21T12:27:47;18.80;;;8.60;;
83747;SDS011;73737;52.364;17.120;2024-02-21T12:30:17;18.40;;;8.40;;
83747;SDS011;73737;52.364;17.120;2024-02-21T12:32:46;19.00;;;8.80;;
83747;SDS011;73737;52.364;17.120;2024-02-21T12:35:16;19.20;;;8.90;;
83747;SDS011;73737;52.364;17.120;2024-02-21T12:37:46;20.30;;;9.00;;
83747;SDS011;73737;52.364;17.120;2024-02-21T12:40:14;16.70;;;8.60;;
83747;SDS011;73737;52.364;17.120;2024-02-21T12:42:43;19.60;;;8.70;;
83747;SDS011;73737;52.364;17.120;2024-02-21T12:45:14;18.80;;;8.40;;
83747;SDS011;73737;52.364;17.120;2024-02-21T12:47:43;19.20;;;9.30;;
83747;SDS011;73737;52.364;17.120;2024-02-21T12:50:12;18.60;;;8.70;;
83747;SDS011;73737;52.364;17.120;2024-02-21T12:52:43;15.20;;;8.20;;
83747;SDS011;73737;52.364;17.120;2024-02-21T12:55:12;21.30;;;8.80;;
83747;SDS011;73737;52.364;17.120;2024-02-21T12:57:42;21.20;;;9.10;;
83747;SDS011;73737;52.364;17.120;2024-02-21T13:00:11;18.10;;;8.50;;
83747;SDS011;73737;52.364;17.120;2024-02-21T13:02:40;20.30;;;9.40;;
83747;SDS011;73737;52.364;17.120;2024-02-21T13:05:09;19.20;;;8.80;;
83747;SDS011;73737;52.364;17.120;2024-02-21T13:07:38;17.30;;;9.00;;
83747;SDS011;73737;52.364;17.120;2024-02-21T13:10:07;17.50;;;8.20;;
83747;SDS011;73737;52.364;17.120;2024-02-21T13:12:36;19.90;;;8.90;;
83747;SDS011;73737;52.364;17.120;2024-02-21T13:15:05;15.60;;;8.60;;
83747;SDS011;73737;52.364;17.120;2024-02-21T13:17:34;19.30;;;9.10;;
83747;SDS011;73737;52.364;17.120;2024-02-21T13:20:04;18.30;;;8.90;;
83747;SDS011;73737;52.364;17.120;2024-02-21T13:22:34;21.50;;;9.10;;
83747;SDS011;73737;52.364;17.120;2024-02-21T13:25:03;22.10;;;9.50;;
83747;SDS011;73737;52.364;17.120;2024-02-21T13:27:33;19.40;;;8.60;;
83747;SDS011;73737;52.364;17.120;2024-02-21T13:30:02;23.40;;;9.70;;
83747;SDS011;73737;52.364;17.120;2024-02-21T13:32:34;19.00;;;9.30;;
83747;SDS011;73737;52.364;17.120;2024-02-21T13:35:03;20.50;;;9.40;;
83747;SDS011;73737;52.364;17.120;2024-02-21T13:37:32;18.50;;;9.10;;
83747;SDS011;73737;52.364;17.120;2024-02-21T13:40:01;24.40;;;10.90;;
83747;SDS011;73737;52.364;17.120;2024-02-21T13:42:31;16.50;;;9.70;;
83747;SDS011;73737;52.364;17.120;2024-02-21T13:45:01;21.50;;;8.60;;
83747;SDS011;73737;52.364;17.120;2024-02-21T13:47:30;21.20;;;9.00;;
83747;SDS011;73737;52.364;17.120;2024-02-21T13:50:00;16.90;;;8.60;;
83747;SDS011;73737;52.364;17.120;2024-02-21T13:52:29;17.40;;;9.80;;
83747;SDS011;73737;52.364;17.120;2024-02-21T13:54:57;19.20;;;9.20;;
83747;SDS011;73737;52.364;17.120;2024-02-21T13:57:27;17.60;;;9.60;;
83747;SDS011;73737;52.364;17.120;2024-02-21T13:59:56;19.70;;;9.70;;
83747;SDS011;73737;52.364;17.120;2024-02-21T14:02:24;20.20;;;10.20;;
83747;SDS011;73737;52.364;17.120;2024-02-21T14:04:53;17.80;;;8.90;;
83747;SDS011;73737;52.364;17.120;2024-02-21T14:07:21;20.70;;;10.30;;
83747;SDS011;73737;52.364;17.120;2024-02-21T14:09:50;21.00;;;9.30;;
83747;SDS011;73737;52.364;17.120;2024-02-21T14:12:19;18.10;;;9.00;;
83747;SDS011;73737;52.364;17.120;2024-02-21T14:14:49;19.00;;;8.70;;
83747;SDS011;73737;52.364;17.120;2024-02-21T14:17:18;19.50;;;8.90;;
83747;SDS011;73737;52.364;17.120;2024-02-21T14:19:48;19.40;;;9.90;;
83747;SDS011;73737;52.364;17.120;2024-02-21T14:22:19;17.60;;;8.90;;
83747;SDS011;73737;52.364;17.120;2024-02-21T14:24:48;16.90;;;8.60;;
83747;SDS011;73737;52.364;17.120;2024-02-21T14:27:17;18.50;;;8.90;;
83747;SDS011;73737;52.364;17.120;2024-02-21T14:29:46;16.50;;;8.80;;
83747;SDS011;73737;52.364;17.120;2024-02-21T14:32:15;16.70;;;8.30;;
83747;SDS011;73737;52.364;17.120;2024-02-21T14:34:43;17.60;;;8.60;;